Time;durP1;ratioP1;P1;durP2;ratioP2;P2;SDS_P1;SDS_P2;PMS_P1;PMS_P2;Temp;Humidity;BMP_temperature;BMP_pressure;BME280_temperature;BME280_humidity;BME280_pressure;Samples;Min_cycle;Max_cycle;Signal;HPM_P1;HPM_P2
2024/03/30 00:01:08;;;;;;;35.07;7.63;;;11.40;77.10;;;10.82;68.70;96264.03;5031161;28;20550;-80
2024/03/30 00:03:36;;;;;;;52.33;7.50;;;11.50;76.30;;;10.89;67.73;96273.53;5029309;28;20486;-80
2024/03/30 00:06:03;;;;;;;35.53;8.73;;;11.60;75.80;;;10.94;66.96;96277.38;5036796;28;20557;-79
2024/03/30 00:08:31;;;;;;;40.47;9.40;;;11.60;75.10;;;10.94;66.79;96271.97;5046755;28;20519;-80
2024/03/30 00:10:59;;;;;;;30.87;8.20;;;11.60;74.80;;;10.98;66.65;96268.44;5025874;28;20466;-80
2024/03/30 00:13:27;;;;;;;45.67;8.90;;;11.70;74.40;;;11.04;65.72;96280.13;5030164;28;20493;-80
2024/03/30 00:15:55;;;;;;;56.17;11.00;;;11.70;73.90;;;11.17;65.04;96281.56;5028986;28;20484;-80
2024/03/30 00:18:22;;;;;;;44.50;9.33;;;11.80;73.20;;;11.19;64.22;96279.41;5044812;28;20476;-80
2024/03/30 00:20:49;;;;;;;51.13;10.63;;;11.90;72.90;;;10.88;63.79;96214.38;5038108;28;20484;-80
2024/03/30 00:23:16;;;;;;;44.63;10.13;;;11.90;72.30;;;11.39;62.53;96277.88;5037405;28;20539;-80
2024/03/30 00:25:52;;;;;;;48.63;10.30;;;12.10;71.90;;;11.42;62.70;96285.44;5026915;28;20829;-79
2024/03/30 00:28:19;;;;;;;54.17;11.27;;;12.10;71.20;;;11.48;61.60;96281.72;5025186;28;20473;-80
2024/03/30 00:30:46;;;;;;;60.47;11.33;;;12.20;70.50;;;11.55;61.31;96286.88;5025136;28;20485;-80
2024/03/30 00:33:14;;;;;;;62.00;11.77;;;12.30;70.10;;;11.57;60.70;96285.50;5034392;28;20513;-80
2024/03/30 00:35:41;;;;;;;69.23;12.50;;;12.20;69.50;;;11.61;60.62;96288.50;5032534;28;20468;-80
2024/03/30 00:38:08;;;;;;;61.63;11.93;;;12.30;69.40;;;11.56;59.98;96275.78;5032187;28;20885;-80
2024/03/30 00:40:35;;;;;;;63.93;15.27;;;12.40;68.80;;;11.67;59.50;96294.75;5028478;28;20486;-79
2024/03/30 00:43:03;;;;;;;61.67;11.90;;;12.40;68.40;;;11.33;59.45;96226.47;5036501;28;20474;-80
2024/03/30 00:45:29;;;;;;;61.20;11.50;;;12.40;68.10;;;11.71;59.36;96301.25;5027394;28;20471;-80
2024/03/30 00:47:57;;;;;;;72.60;14.07;;;12.40;67.80;;;11.71;59.16;96295.84;5035156;28;20483;-79
2024/03/30 00:50:25;;;;;;;62.33;12.67;;;12.40;67.50;;;11.68;58.93;96290.97;5028392;28;20474;-79
2024/03/30 00:52:52;;;;;;;72.47;13.40;;;12.40;67.30;;;11.72;58.60;96295.59;5048921;28;20472;-79
2024/03/30 00:55:19;;;;;;;63.47;12.17;;;12.40;67.10;;;11.70;58.68;96299.63;5048690;28;20581;-79
2024/03/30 00:57:46;;;;;;;67.10;13.23;;;12.40;66.80;;;11.70;58.81;96302.34;5040769;28;20510;-79
2024/03/30 01:00:14;;;;;;;60.50;13.10;;;12.40;66.90;;;11.70;58.54;96299.63;5040671;28;20489;-80
2024/03/30 01:02:41;;;;;;;60.73;12.53;;;12.30;66.50;;;11.56;58.63;96305.53;5041627;28;20481;-79
2024/03/30 01:05:08;;;;;;;72.50;13.97;;;12.30;66.60;;;11.55;58.74;96306.59;5029862;28;20478;-79
2024/03/30 01:07:37;;;;;;;61.70;13.43;;;12.30;66.50;;;11.44;59.19;96294.94;5041809;28;20481;-79
2024/03/30 01:10:06;;;;;;;89.63;14.23;;;12.20;66.60;;;11.40;59.04;96318.19;5053604;28;20499;-79
2024/03/30 01:12:34;;;;;;;86.13;13.80;;;12.10;66.40;;;11.69;57.94;96298.00;5045647;28;20482;-79
2024/03/30 01:15:02;;;;;;;75.23;14.57;;;12.20;66.00;;;11.69;57.64;96281.78;5037599;28;20512;-79
2024/03/30 01:17:30;;;;;;;77.33;15.13;;;12.30;65.60;;;11.65;57.82;96303.13;5043283;28;20567;-79
2024/03/30 01:19:57;;;;;;;61.53;14.10;;;12.20;65.60;;;11.56;57.81;96299.31;5033973;28;20485;-80
2024/03/30 01:22:24;;;;;;;79.90;16.30;;;12.10;65.70;;;11.71;57.28;96295.84;5034539;28;20479;-80
2024/03/30 01:24:53;;;;;;;89.33;15.17;;;12.20;65.40;;;11.68;57.28;96297.22;5044734;28;20785;-80
2024/03/30 01:27:21;;;;;;;83.20;15.80;;;12.20;65.00;;;11.56;57.27;96294.72;5039949;28;20467;-79
2024/03/30 01:29:49;;;;;;;87.20;14.20;;;12.20;65.10;;;11.58;57.45;96303.38;5035124;28;20974;-80
2024/03/30 01:32:17;;;;;;;82.10;16.00;;;12.10;64.90;;;11.69;56.83;96301.53;5039363;28;21036;-80
2024/03/30 01:34:44;;;;;;;78.10;15.23;;;12.20;64.70;;;11.65;56.39;96311.25;5035669;28;20500;-79
2024/03/30 01:37:11;;;;;;;56.30;12.57;;;12.20;64.30;;;11.66;56.08;96295.84;5041827;28;20473;-80
2024/03/30 01:39:37;;;;;;;95.83;16.93;;;12.20;64.10;;;11.61;56.04;96288.50;5034833;28;20471;-80
2024/03/30 01:42:06;;;;;;;69.53;14.77;;;12.20;63.90;;;11.74;55.90;96301.56;5037215;28;20477;-79
2024/03/30 01:44:32;;;;;;;77.70;16.27;;;12.20;64.20;;;11.81;55.84;96295.91;5043412;28;20486;-79
2024/03/30 01:46:59;;;;;;;84.47;17.10;;;12.30;63.60;;;11.74;55.79;96290.72;5025587;28;20471;-79
2024/03/30 01:49:26;;;;;;;82.33;17.57;;;12.30;63.50;;;11.48;55.22;96270.88;5025152;28;20482;-80
2024/03/30 01:51:54;;;;;;;78.93;15.10;;;12.20;63.30;;;11.71;55.79;96296.69;5028189;28;20482;-80
2024/03/30 01:54:21;;;;;;;67.30;13.63;;;12.30;63.20;;;11.71;55.37;96293.16;5032035;28;20514;-79
2024/03/30 01:56:51;;;;;;;75.63;15.00;;;12.20;63.20;;;11.66;55.53;96303.97;5032730;28;20481;-79
2024/03/30 01:59:18;;;;;;;79.73;15.20;;;12.10;63.00;;;11.57;55.81;96290.94;5033773;28;20493;-79
2024/03/30 02:01:47;;;;;;;89.10;17.00;;;12.10;63.10;;;11.60;55.52;96295.84;5046005;28;20484;-79
2024/03/30 02:04:15;;;;;;;90.17;16.50;;;12.10;63.00;;;11.59;55.47;96294.19;5043051;28;20480;-79
2024/03/30 02:06:44;;;;;;;79.13;15.57;;;12.10;62.80;;;11.54;55.67;96296.88;5044332;28;20569;-81
2024/03/30 02:09:12;;;;;;;78.43;16.57;;;12.10;62.90;;;11.53;55.32;96295.25;5046113;28;20955;-80
2024/03/30 02:11:40;;;;;;;89.93;17.63;;;12.10;62.60;;;11.43;55.76;96289.78;5045641;28;21010;-81
2024/03/30 02:14:07;;;;;;;94.17;17.80;;;11.90;62.60;;;11.44;55.84;96291.41;5046048;28;20579;-80
2024/03/30 02:16:37;;;;;;;65.93;14.23;;;11.80;62.80;;;11.32;55.95;96289.75;5047480;28;20477;-80
2024/03/30 02:19:05;;;;;;;81.83;16.43;;;11.80;62.60;;;11.25;55.71;96283.75;5045054;28;20650;-80
2024/03/30 02:21:32;;;;;;;92.67;18.17;;;11.90;62.50;;;11.34;55.89;96301.13;5046251;28;20531;-79
2024/03/30 02:23:59;;;;;;;95.07;17.90;;;11.90;62.40;;;11.25;56.05;96289.16;5043268;28;21203;-79
2024/03/30 02:26:27;;;;;;;82.47;16.80;;;11.90;62.50;;;11.04;56.20;96291.75;5045499;28;20499;-80
2024/03/30 02:28:54;;;;;;;79.27;16.50;;;11.70;62.30;;;11.05;56.39;96290.66;5040305;28;20531;-80
2024/03/30 02:31:22;;;;;;;87.27;17.37;;;11.70;62.40;;;11.15;55.54;96291.81;5033547;28;21362;-79
2024/03/30 02:33:49;;;;;;;88.97;16.80;;;11.70;62.00;;;10.95;56.52;96279.78;5033279;28;20486;-79
2024/03/30 02:36:18;;;;;;;79.20;18.20;;;11.70;62.00;;;11.14;55.91;96284.75;5038176;28;20617;-80
2024/03/30 02:38:45;;;;;;;97.53;17.20;;;11.70;62.00;;;11.22;55.67;96292.38;5037413;28;20479;-79
2024/03/30 02:41:13;;;;;;;87.20;17.30;;;11.80;61.90;;;11.26;55.39;96281.88;5027583;28;21279;-79
2024/03/30 02:43:39;;;;;;;78.17;14.80;;;12.00;61.60;;;11.15;55.25;96294.53;5034887;28;20905;-79
2024/03/30 02:46:07;;;;;;;95.50;17.63;;;11.90;61.50;;;11.04;55.74;96294.44;5028493;28;20980;-80
2024/03/30 02:48:33;;;;;;;85.07;16.63;;;11.70;61.70;;;11.05;55.64;96292.53;5026068;28;20471;-79
2024/03/30 02:51:00;;;;;;;83.50;17.07;;;11.60;61.60;;;11.15;55.31;96289.13;5044372;28;21424;-79
2024/03/30 02:53:26;;;;;;;83.77;17.40;;;11.80;61.40;;;10.88;55.04;96241.38;5038090;28;20485;-79
2024/03/30 02:55:53;;;;;;;84.27;16.23;;;11.80;61.10;;;10.91;54.90;96238.97;5028955;28;20479;-79
2024/03/30 02:58:21;;;;;;;73.40;17.17;;;11.90;61.20;;;11.06;55.38;96286.06;5034397;28;20536;-79
2024/03/30 03:00:48;;;;;;;78.17;16.83;;;11.70;61.00;;;11.26;54.06;96282.66;5034074;28;20935;-79
2024/03/30 03:03:14;;;;;;;66.77;15.10;;;11.90;60.80;;;11.28;54.50;96294.03;5040374;28;20545;-79
2024/03/30 03:05:42;;;;;;;76.40;16.63;;;11.90;60.60;;;11.31;53.83;96292.69;5031922;28;20482;-78
2024/03/30 03:08:08;;;;;;;95.93;17.27;;;11.90;60.40;;;11.32;53.79;96286.22;5033368;28;20512;-79
2024/03/30 03:10:35;;;;;;;93.60;18.83;;;12.00;60.10;;;11.50;52.89;96284.97;5042083;28;20487;-80
2024/03/30 03:13:02;;;;;;;90.20;19.13;;;12.10;59.80;;;11.45;52.92;96272.22;5052947;28;20485;-78
2024/03/30 03:15:30;;;;;;;78.70;15.53;;;12.10;59.70;;;11.42;53.27;96288.16;5047492;28;20473;-79
2024/03/30 03:17:56;;;;;;;77.00;16.10;;;12.10;59.70;;;11.20;54.04;96271.00;5038124;28;20533;-79
2024/03/30 03:20:24;;;;;;;97.27;17.17;;;12.00;59.90;;;11.20;54.03;96275.63;5036018;28;20536;-80
2024/03/30 03:22:50;;;;;;;79.70;17.00;;;11.90;59.90;;;11.01;54.95;96291.44;5017234;28;20577;-81
2024/03/30 03:25:17;;;;;;;88.87;17.30;;;11.70;60.10;;;11.12;54.81;96279.63;5036756;28;20944;-79
2024/03/30 03:27:44;;;;;;;89.23;17.23;;;11.80;60.40;;;11.11;55.09;96285.28;5038520;28;20950;-80
2024/03/30 03:30:12;;;;;;;84.47;17.50;;;11.70;60.50;;;10.99;55.01;96274.69;5038913;28;20865;-80
2024/03/30 03:32:39;;;;;;;83.47;17.87;;;11.80;60.60;;;10.97;55.71;96276.84;5031514;28;20511;-80
2024/03/30 03:35:07;;;;;;;71.57;14.67;;;11.70;60.60;;;11.05;55.83;96279.88;5031969;28;20490;-79
2024/03/30 03:37:33;;;;;;;87.40;16.93;;;11.70;61.00;;;11.06;55.73;96286.06;5036907;28;20473;-77
2024/03/30 03:40:01;;;;;;;79.37;16.30;;;11.70;60.80;;;11.00;55.84;96282.53;5036164;28;20469;-80
2024/03/30 03:42:28;;;;;;;78.00;16.33;;;11.50;60.90;;;10.95;56.03;96282.50;5044307;28;20530;-81
2024/03/30 03:44:55;;;;;;;73.70;15.23;;;11.50;61.10;;;10.99;56.23;96280.88;5028147;28;21271;-80
2024/03/30 03:47:22;;;;;;;100.60;19.43;;;11.40;61.30;;;10.91;56.34;96281.41;5029688;28;20478;-79
2024/03/30 03:49:50;;;;;;;76.30;15.00;;;11.30;61.30;;;10.93;56.97;96281.94;5033145;28;20498;-80
2024/03/30 03:52:17;;;;;;;94.27;15.87;;;11.30;61.90;;;10.83;57.26;96276.47;5030630;28;20593;-79
2024/03/30 03:54:44;;;;;;;82.87;16.93;;;11.20;61.90;;;10.98;56.98;96270.34;5048051;28;20485;-79
2024/03/30 03:57:10;;;;;;;70.07;14.03;;;11.40;62.10;;;11.02;56.50;96271.47;5028047;28;20459;-79
2024/03/30 03:59:37;;;;;;;85.30;16.80;;;11.50;62.00;;;11.07;57.15;96276.09;5035902;28;21170;-80
2024/03/30 04:02:04;;;;;;;79.03;18.67;;;11.50;62.00;;;10.95;57.51;96271.69;5045262;28;20850;-79
2024/03/30 04:04:31;;;;;;;72.20;18.00;;;11.50;62.20;;;10.88;57.59;96268.41;5031598;28;20481;-79
2024/03/30 04:06:59;;;;;;;86.03;16.83;;;11.40;62.20;;;10.75;58.37;96270.47;5044648;28;20476;-79
2024/03/30 04:09:26;;;;;;;75.60;16.17;;;11.40;62.50;;;10.69;58.38;96268.84;5036320;28;20560;-79
2024/03/30 04:11:52;;;;;;;93.93;16.33;;;11.20;62.50;;;10.47;58.30;96236.53;5028252;28;20482;-78
2024/03/30 04:14:20;;;;;;;87.27;19.17;;;11.20;62.50;;;10.44;58.43;96259.44;5030954;28;20502;-80
2024/03/30 04:16:46;;;;;;;83.40;17.37;;;11.20;62.30;;;10.30;58.75;96252.81;5036773;28;20486;-79
2024/03/30 04:19:17;;;;;;;85.10;15.47;;;11.00;62.40;;;10.25;59.03;96267.06;5028394;28;21116;-80
2024/03/30 04:21:44;;;;;;;73.43;14.33;;;10.90;62.50;;;10.42;58.79;96250.78;5038965;28;20479;-79
2024/03/30 04:24:13;;;;;;;91.57;16.83;;;10.90;62.80;;;10.25;59.90;96250.09;5027639;28;20466;-79
2024/03/30 04:26:39;;;;;;;76.40;15.70;;;10.80;63.20;;;10.11;59.24;96255.91;5029546;28;20482;-80
2024/03/30 04:29:07;;;;;;;73.63;15.60;;;10.80;62.80;;;9.98;59.96;96232.03;5036256;28;20551;-79
2024/03/30 04:31:33;;;;;;;75.43;16.00;;;10.80;63.00;;;10.24;59.14;96254.66;5034030;28;20483;-80
2024/03/30 04:34:00;;;;;;;72.97;15.23;;;10.80;63.00;;;10.20;58.75;96254.34;5051156;28;20496;-81
2024/03/30 04:36:26;;;;;;;80.53;16.50;;;10.80;62.70;;;10.28;58.85;96254.97;5042688;28;20484;-80
2024/03/30 04:38:54;;;;;;;70.07;15.93;;;10.90;62.70;;;10.19;58.05;96201.44;5031403;28;20967;-80
2024/03/30 04:41:23;;;;;;;74.40;15.33;;;11.00;62.70;;;10.55;57.82;96249.53;5035468;28;20474;-79
2024/03/30 04:43:50;;;;;;;82.70;15.47;;;11.00;62.50;;;10.62;57.61;96260.13;5026963;28;20466;-80
2024/03/30 04:46:16;;;;;;;91.87;15.57;;;11.00;62.30;;;10.21;58.23;96228.97;5027488;28;20470;-81
2024/03/30 04:48:45;;;;;;;80.33;16.30;;;11.00;62.30;;;10.89;56.74;96259.22;5027439;28;20474;-79
2024/03/30 04:51:11;;;;;;;85.10;16.17;;;11.20;62.20;;;10.90;56.86;96261.66;5037225;28;21398;-80
2024/03/30 04:53:38;;;;;;;74.77;14.60;;;11.30;62.20;;;10.71;57.78;96250.47;5030689;28;20527;-79
2024/03/30 04:56:06;;;;;;;89.87;16.90;;;11.30;62.20;;;10.67;57.72;96251.25;5039927;28;20478;-80
2024/03/30 04:58:35;;;;;;;77.13;14.93;;;11.30;62.10;;;10.54;58.46;96256.00;5031592;28;20483;-79
2024/03/30 05:01:03;;;;;;;73.70;16.83;;;11.20;62.30;;;10.43;58.05;96247.03;5037810;28;20479;-80
2024/03/30 05:03:31;;;;;;;70.33;14.37;;;11.10;62.40;;;10.58;57.90;96245.50;5033878;28;21076;-79
2024/03/30 05:05:58;;;;;;;86.43;16.27;;;11.10;62.50;;;10.61;58.43;96242.28;5037938;28;21023;-80
2024/03/30 05:08:25;;;;;;;86.13;16.27;;;11.10;62.70;;;10.73;58.67;96250.19;5040241;28;21153;-80
2024/03/30 05:10:52;;;;;;;89.33;13.90;;;11.20;62.80;;;10.67;58.34;96241.25;5029512;28;20570;-80
2024/03/30 05:13:20;;;;;;;69.37;15.77;;;11.30;62.60;;;10.49;58.66;96212.78;5035512;28;20542;-79
2024/03/30 05:15:48;;;;;;;75.60;17.50;;;11.30;62.70;;;10.83;58.07;96238.63;5032205;28;20497;-79
2024/03/30 05:18:17;;;;;;;70.37;15.23;;;11.40;62.80;;;10.70;57.93;96234.50;5031019;28;20501;-79
2024/03/30 05:20:50;;;;;;;73.13;16.80;;;11.40;62.40;;;10.55;58.27;96222.53;5039001;28;20476;-79
2024/03/30 05:23:19;;;;;;;81.00;16.30;;;11.30;62.30;;;10.61;58.49;96215.28;5032039;28;21023;-79
2024/03/30 05:25:46;;;;;;;68.70;14.50;;;11.30;62.50;;;10.70;57.75;96219.13;5050565;28;20481;-80
2024/03/30 05:28:15;;;;;;;83.23;15.33;;;11.40;62.20;;;10.75;57.01;96224.56;5040964;28;20533;-80
2024/03/30 05:30:42;;;;;;;82.00;16.67;;;11.40;61.90;;;10.63;57.80;96221.22;5033265;28;20474;-79
2024/03/30 05:33:12;;;;;;;76.20;18.60;;;11.30;62.10;;;10.70;58.19;96223.72;5042254;28;20473;-80
2024/03/30 05:35:39;;;;;;;67.70;14.43;;;11.30;62.40;;;10.65;57.00;96194.78;5039141;28;20497;-79
2024/03/30 05:38:06;;;;;;;88.37;17.70;;;11.40;61.90;;;10.77;57.65;96214.31;5043395;28;20526;-80
2024/03/30 05:40:35;;;;;;;65.67;15.00;;;11.50;61.90;;;10.75;56.98;96215.63;5030354;28;21053;-80
2024/03/30 05:43:03;;;;;;;84.37;16.07;;;11.40;61.60;;;10.88;57.19;96230.59;5033500;28;20481;-80
2024/03/30 05:45:30;;;;;;;84.57;15.73;;;11.40;61.70;;;11.02;56.29;96231.75;5027991;28;20544;-80
2024/03/30 05:47:57;;;;;;;71.27;16.10;;;11.50;61.60;;;11.05;56.13;96236.63;5040771;28;20493;-80
2024/03/30 05:50:27;;;;;;;67.53;15.00;;;11.50;61.50;;;11.13;56.22;96243.41;5025820;28;20470;-81
2024/03/30 05:52:53;;;;;;;61.87;13.57;;;11.60;61.50;;;10.86;56.41;96205.72;5030278;28;20474;-80
2024/03/30 05:55:21;;;;;;;69.37;14.73;;;11.60;61.90;;;10.69;56.43;96185.09;5034062;28;20501;-80
2024/03/30 05:57:48;;;;;;;65.13;13.63;;;11.60;61.60;;;11.04;56.39;96256.63;5034124;28;20473;-80
2024/03/30 06:00:16;;;;;;;77.80;15.43;;;11.60;61.70;;;10.99;56.73;96259.28;5056563;28;20485;-80
2024/03/30 06:02:44;;;;;;;83.17;15.37;;;11.60;61.80;;;11.07;56.87;96254.47;5049246;28;20825;-81
2024/03/30 06:05:12;;;;;;;70.87;15.10;;;11.60;61.80;;;11.11;56.78;96255.56;5034692;28;20979;-81
2024/03/30 06:07:41;;;;;;;72.13;14.67;;;11.70;62.00;;;11.07;57.15;96240.94;5035939;28;20701;-81
2024/03/30 06:10:10;;;;;;;71.50;13.97;;;11.70;61.90;;;11.21;56.84;96255.63;5026335;28;20478;-81
2024/03/30 06:12:37;;;;;;;71.60;15.50;;;11.80;62.10;;;11.30;56.83;96253.22;5033084;28;20488;-81
2024/03/30 06:15:06;;;;;;;79.23;15.70;;;11.90;62.00;;;11.31;56.55;96260.25;5040011;28;20543;-79
2024/03/30 06:17:35;;;;;;;76.13;16.03;;;12.10;61.80;;;11.45;56.04;96261.41;5030655;28;20490;-80
2024/03/30 06:20:05;;;;;;;84.37;16.50;;;12.10;61.40;;;11.50;56.03;96257.09;5029355;28;20473;-79
2024/03/30 06:22:33;;;;;;;72.20;15.33;;;12.20;61.40;;;11.58;55.42;96256.59;5040590;28;20553;-79
2024/03/30 06:25:01;;;;;;;73.63;13.47;;;12.30;61.30;;;11.61;55.58;96243.34;5026169;28;20500;-79
2024/03/30 06:27:28;;;;;;;87.07;14.70;;;12.30;61.20;;;11.77;54.89;96244.19;5026848;28;20479;-80
2024/03/30 06:29:54;;;;;;;71.67;14.70;;;12.40;61.10;;;11.76;54.97;96245.28;5036077;28;20477;-80
2024/03/30 06:32:21;;;;;;;75.93;14.90;;;12.30;61.00;;;11.81;54.73;96243.66;5031405;28;20532;-82
2024/03/30 06:34:48;;;;;;;77.27;16.23;;;12.30;60.90;;;11.77;54.63;96246.09;5037812;28;20486;-80
2024/03/30 06:37:15;;;;;;;78.43;17.07;;;12.30;60.90;;;12.00;54.20;96238.56;5037542;28;20520;-80
2024/03/30 06:45:13;;;;;;;65.73;15.23;;;12.50;61.20;;;12.14;54.71;96245.13;5026078;28;20975;-80
2024/03/30 06:47:40;;;;;;;69.20;13.73;;;12.60;61.60;;;11.72;54.64;96168.44;5040365;28;20580;-81
2024/03/30 06:50:08;;;;;;;70.63;14.73;;;12.60;61.10;;;12.08;54.20;96207.47;5034093;28;20489;-80
2024/03/30 06:52:35;;;;;;;69.27;14.73;;;12.70;61.10;;;12.29;54.10;96240.78;5036776;28;20489;-80
2024/03/30 06:55:02;;;;;;;68.73;15.47;;;12.80;61.10;;;12.22;54.05;96229.44;5039516;28;20895;-81
2024/03/30 06:57:30;;;;;;;85.80;15.13;;;12.80;60.90;;;12.37;53.76;96225.91;5031350;28;20474;-80
2024/03/30 06:59:57;;;;;;;81.50;16.00;;;12.80;60.50;;;12.50;52.99;96224.53;5034593;28;20485;-80
2024/03/30 07:02:24;;;;;;;70.87;14.30;;;12.90;60.10;;;12.56;52.81;96212.63;5047455;28;20476;-78
2024/03/30 07:04:51;;;;;;;66.07;14.10;;;13.10;60.20;;;12.66;52.59;96218.03;5040107;28;20545;-82
2024/03/30 07:07:17;;;;;;;71.60;14.77;;;13.20;60.00;;;12.92;51.69;96230.75;5037119;28;20467;-79
2024/03/30 07:09:45;;;;;;;71.70;15.13;;;13.40;59.80;;;13.24;51.07;96227.66;5030689;28;20479;-83
2024/03/30 07:12:11;;;;;;;69.83;14.43;;;13.70;59.40;;;13.39;50.31;96223.25;5031411;28;20471;-81
2024/03/30 07:14:39;;;;;;;76.33;17.20;;;13.90;59.10;;;13.57;49.80;96228.13;5035635;28;20557;-82
2024/03/30 07:17:06;;;;;;;70.40;14.70;;;14.20;58.60;;;13.73;48.98;96228.03;5040348;28;20459;-83
2024/03/30 07:19:33;;;;;;;64.77;14.17;;;14.30;58.40;;;13.93;48.74;96229.00;5038758;28;21040;-81
2024/03/30 07:22:00;;;;;;;78.07;15.87;;;14.50;58.10;;;13.56;48.90;96150.50;5041476;28;20509;-82
2024/03/30 07:24:27;;;;;;;72.83;15.57;;;14.60;58.10;;;14.08;47.88;96209.91;5051550;28;20474;-80
2024/03/30 07:26:54;;;;;;;69.03;14.97;;;14.80;57.90;;;14.43;47.77;96228.94;5038368;28;20478;-81
2024/03/30 07:29:21;;;;;;;77.10;16.47;;;15.00;57.70;;;14.31;46.98;96227.38;5036760;28;20483;-83
2024/03/30 07:31:48;;;;;;;75.13;14.33;;;15.10;57.00;;;14.66;46.61;96226.53;5038459;28;21011;-82
2024/03/30 07:34:16;;;;;;;58.70;14.50;;;15.20;57.00;;;14.77;46.35;96228.09;5030153;28;20488;-83
2024/03/30 07:36:43;;;;;;;74.00;15.60;;;15.40;56.80;;;14.82;46.47;96230.78;5034454;28;20476;-84
2024/03/30 07:39:09;;;;;;;71.37;14.43;;;15.50;56.60;;;15.01;46.16;96236.31;5034429;28;21035;-83
2024/03/30 07:41:36;;;;;;;56.87;13.40;;;15.60;56.60;;;15.25;45.57;96232.78;5040143;28;20483;-82
2024/03/30 07:44:02;;;;;;;72.07;15.00;;;15.80;56.40;;;15.29;45.11;96233.81;5034457;28;20469;-83
2024/03/30 07:46:29;;;;;;;66.40;12.43;;;15.90;55.90;;;15.41;44.56;96230.69;5046168;28;20492;-84
2024/03/30 07:48:57;;;;;;;62.00;14.00;;;16.10;55.60;;;15.56;44.89;96232.44;5028046;28;20476;-81
2024/03/30 07:51:24;;;;;;;64.70;13.83;;;16.20;56.00;;;15.62;43.83;96244.06;5042702;28;20711;-83
2024/03/30 07:53:51;;;;;;;69.03;13.90;;;16.30;54.90;;;15.73;43.35;96231.13;5048737;28;20494;-83
2024/03/30 07:56:18;;;;;;;62.57;12.83;;;16.40;54.40;;;15.79;42.77;96240.03;5051318;28;20499;-83
2024/03/30 07:58:44;;;;;;;60.80;13.53;;;16.50;54.00;;;15.74;42.22;96191.91;5049357;28;20829;-81
2024/03/30 08:01:12;;;;;;;44.37;11.13;;;16.60;53.70;;;16.36;41.22;96223.72;5053382;28;20487;-84
2024/03/30 08:03:38;;;;;;;59.90;12.93;;;16.80;53.20;;;16.60;41.13;96225.47;5053943;28;20480;-82
2024/03/30 08:06:07;;;;;;;68.80;13.30;;;17.00;53.00;;;16.84;39.69;96224.53;5056284;28;20479;-81
2024/03/30 08:08:34;;;;;;;73.43;12.40;;;17.20;52.00;;;16.85;39.32;96223.44;5056194;28;21004;-83
2024/03/30 08:11:02;;;;;;;46.17;11.10;;;17.30;51.60;;;16.81;39.75;96230.59;5062100;28;20510;-80
2024/03/30 08:13:28;;;;;;;56.93;11.90;;;17.50;51.40;;;16.90;39.60;96220.59;5057859;28;20488;-82
2024/03/30 08:15:55;;;;;;;49.30;11.20;;;17.50;51.20;;;16.88;38.93;96219.31;5050093;28;20575;-81
2024/03/30 08:18:22;;;;;;;65.40;12.63;;;17.50;50.40;;;17.06;38.66;96210.25;5048518;28;20485;-84
2024/03/30 08:20:49;;;;;;;44.27;10.30;;;17.60;50.50;;;17.21;38.03;96206.44;5040949;28;20519;-81
2024/03/30 08:23:17;;;;;;;54.93;12.13;;;17.90;50.00;;;17.36;37.70;96229.88;5040965;28;20481;-83
2024/03/30 08:25:46;;;;;;;47.70;9.90;;;18.00;49.70;;;17.43;37.76;96224.03;5033855;28;20481;-82
2024/03/30 08:28:12;;;;;;;62.10;11.97;;;18.00;49.50;;;17.60;36.93;96222.59;5039257;28;20470;-81
2024/03/30 08:30:39;;;;;;;51.93;10.77;;;18.10;49.10;;;17.53;36.32;96199.25;5031511;28;20480;-82
2024/03/30 08:33:09;;;;;;;53.63;10.60;;;18.20;48.30;;;17.78;36.61;96216.19;5036640;28;20470;-83
2024/03/30 08:35:36;;;;;;;58.10;10.87;;;18.30;48.60;;;17.94;36.68;96210.38;5036068;28;20501;-82
2024/03/30 08:38:04;;;;;;;54.63;11.03;;;18.50;48.80;;;18.08;35.64;96211.19;5042571;28;20475;-82
2024/03/30 08:40:32;;;;;;;54.27;11.17;;;18.70;47.90;;;17.99;35.45;96186.50;5031567;28;20508;-83
2024/03/30 08:42:59;;;;;;;51.53;9.70;;;18.70;47.60;;;18.11;34.96;96210.56;5035653;28;20499;-82
2024/03/30 08:45:26;;;;;;;49.17;10.10;;;18.70;47.00;;;18.27;34.75;96208.28;5032869;28;20481;-82
2024/03/30 08:47:52;;;;;;;60.17;10.13;;;18.80;46.90;;;18.36;34.30;96205.63;5039509;28;20990;-81
2024/03/30 08:50:19;;;;;;;51.43;9.67;;;19.00;46.50;;;18.52;33.95;96203.34;5043171;28;20483;-83
2024/03/30 08:52:46;;;;;;;48.63;10.17;;;19.00;46.20;;;18.67;33.96;96198.59;5033442;28;21107;-82
2024/03/30 08:55:13;;;;;;;66.53;9.87;;;19.20;46.20;;;18.88;33.79;96201.63;5034312;28;21018;-84
2024/03/30 08:57:40;;;;;;;54.10;9.40;;;19.30;46.20;;;19.30;32.92;96203.25;5044458;28;21001;-84
2024/03/30 09:00:08;;;;;;;47.73;10.03;;;19.60;45.70;;;19.18;33.28;96196.44;5045698;28;20468;-83
2024/03/30 09:02:36;;;;;;;46.50;9.93;;;19.70;45.90;;;19.28;32.57;96195.38;5033598;28;20970;-82
2024/03/30 09:05:05;;;;;;;47.37;9.37;;;19.80;45.30;;;19.24;32.83;96200.66;5041331;28;20480;-84
2024/03/30 09:07:31;;;;;;;43.50;9.60;;;19.80;45.10;;;19.39;32.43;96195.88;5047005;28;20483;-83
2024/03/30 09:09:58;;;;;;;46.10;10.17;;;19.90;45.10;;;19.51;32.13;96187.88;5059474;28;20478;-82
2024/03/30 09:12:24;;;;;;;53.30;9.77;;;20.00;44.90;;;19.44;31.85;96187.50;5036204;28;20468;-83
2024/03/30 09:14:53;;;;;;;53.17;8.87;;;20.10;44.30;;;19.30;31.60;96105.53;5046436;28;20562;-84
2024/03/30 09:17:19;;;;;;;44.63;8.77;;;20.20;44.30;;;19.85;31.19;96196.44;5029287;28;20496;-81
2024/03/30 09:19:47;;;;;;;44.03;9.77;;;20.40;44.10;;;20.28;31.01;96186.69;5036485;28;20505;-82
2024/03/30 09:22:13;;;;;;;48.27;9.23;;;20.60;44.10;;;20.11;30.10;96182.00;5035244;28;20985;-86
2024/03/30 09:24:43;;;;;;;48.90;8.83;;;20.70;43.10;;;20.23;30.04;96189.56;5049212;28;20473;-79
2024/03/30 09:27:09;;;;;;;36.33;8.57;;;20.70;43.00;;;20.40;29.82;96183.28;5046599;28;20533;-82
2024/03/30 09:29:36;;;;;;;41.10;9.30;;;20.80;42.80;;;20.56;29.34;96185.50;5057468;28;20526;-81
2024/03/30 09:32:05;;;;;;;42.10;9.60;;;21.10;42.60;;;20.62;29.23;96185.00;5035771;28;20477;-83
2024/03/30 09:34:32;;;;;;;53.87;10.20;;;21.10;42.40;;;20.74;28.44;96184.34;5039275;28;20466;-84
2024/03/30 09:36:59;;;;;;;40.07;9.40;;;21.30;42.00;;;20.69;28.90;96187.25;5044694;28;20476;-84
2024/03/30 09:39:26;;;;;;;33.27;7.97;;;21.20;41.90;;;20.60;28.95;96175.50;5037276;28;20506;-82
2024/03/30 09:41:53;;;;;;;36.23;8.10;;;21.20;41.70;;;20.55;28.60;96187.47;5045326;28;20856;-82
2024/03/30 09:44:20;;;;;;;39.23;8.30;;;21.10;41.30;;;20.77;28.60;96180.94;5038507;28;20521;-84
2024/03/30 09:46:49;;;;;;;41.30;7.70;;;21.30;41.60;;;21.26;28.20;96173.53;5051244;28;20549;-79
2024/03/30 09:49:19;;;;;;;34.40;8.73;;;21.50;41.60;;;21.31;27.86;96174.16;5038938;28;20582;-83
2024/03/30 09:51:46;;;;;;;37.07;8.87;;;21.70;41.10;;;21.50;27.33;96167.44;5039662;28;20488;-81
2024/03/30 09:54:15;;;;;;;38.60;8.33;;;21.90;40.90;;;21.52;27.59;96176.94;5041302;28;20515;-82
2024/03/30 09:56:45;;;;;;;44.23;8.80;;;22.00;41.40;;;21.18;27.58;96156.78;5024519;28;20563;-83
2024/03/30 09:59:14;;;;;;;51.03;8.90;;;21.90;40.80;;;21.43;27.64;96173.44;5043672;28;20484;-82
2024/03/30 10:01:40;;;;;;;36.77;8.40;;;21.90;40.80;;;21.64;27.64;96173.47;5046664;28;20442;-78
2024/03/30 10:04:08;;;;;;;31.50;7.80;;;22.10;41.00;;;22.19;26.78;96162.59;5049756;28;20463;-81
2024/03/30 10:06:42;;;;;;;37.27;8.33;;;22.30;40.80;;;22.47;26.72;96164.81;5053824;28;20491;-82
2024/03/30 10:09:15;;;;;;;40.67;8.00;;;22.60;41.00;;;22.40;27.15;96158.22;5051835;28;20489;-80
2024/03/30 10:11:45;;;;;;;40.90;8.07;;;22.80;41.20;;;21.75;27.22;96149.19;5058678;28;20475;-79
2024/03/30 10:14:21;;;;;;;38.33;8.43;;;22.50;40.50;;;21.86;27.25;96157.03;5024096;28;20592;-84